This is the latest recevied weather packets stored in our database for station/object YM2KV-13. If no packets are shown the sender has not sent any weather packets the latest 10 day(s).
| Time | Temp. | Humidity | Pressure | Rain* | Wind** | Luminosity | Snow |
|---|---|---|---|---|---|---|---|
| 1777501700 | 5.56° C | 83% | 1030 hPa | - | - | - | - |
| 1777501100 | 5.56° C | 84% | 1030 hPa | - | - | - | - |
| 1777500500 | 5.56° C | 85% | 1030.1 hPa | - | - | - | - |
| 1777499900 | 5.56° C | 85% | 1030 hPa | - | - | - | - |
| 1777499300 | 5.56° C | 84% | 1030 hPa | - | - | - | - |
| 1777498699 | 5.56° C | 85% | 1030.1 hPa | - | - | - | - |
| 1777498100 | 5.56° C | 84% | 1030.1 hPa | - | - | - | - |
| 1777497500 | 5.56° C | 84% | 1030.1 hPa | - | - | - | - |
| 1777496900 | 5.56° C | 84% | 1030 hPa | - | - | - | - |
| 1777496300 | 6.11° C | 83% | 1030 hPa | - | - | - | - |
| 1777494500 | 6.11° C | 83% | 1029.9 hPa | - | - | - | - |
| 1777493299 | 7.22° C | 79% | 1030 hPa | - | - | - | - |
| 1777491499 | 8.33° C | 78% | 1030.1 hPa | - | - | - | - |
| 1777490899 | 8.89° C | 75% | 1030.1 hPa | - | - | - | - |
| 1777490299 | 8.89° C | 75% | 1030 hPa | - | - | - | - |
| 1777489699 | 9.44° C | 74% | 1030 hPa | - | - | - | - |
| 1777487899 | 9.44° C | 75% | 1030 hPa | - | - | - | - |
| 1777487299 | 10° C | 74% | 1030 hPa | - | - | - | - |
| 1777486699 | 10.56° C | 72% | 1029.8 hPa | - | - | - | - |
| 1777486099 | 10.56° C | 73% | 1029.7 hPa | - | - | - | - |
| 1777484299 | 11.11° C | 70% | 1029.4 hPa | - | - | - | - |
| 1777483699 | 11.67° C | 70% | 1029.4 hPa | - | - | - | - |
| 1777483099 | 11.11° C | 70% | 1029.3 hPa | - | - | - | - |
| 1777482499 | 11.67° C | 69% | 1029.3 hPa | - | - | - | - |
| 1777480699 | 12.22° C | 66% | 1029.1 hPa | - | - | - | - |
* Rain since midnight (hover to see other rain measurements)
** Current wind speed in m/s (hover to see current wind gust speed)